createdAt,value
2018-08-09T00:00:09.148Z,27.01
2018-08-09T00:02:37.651Z,27.00
2018-08-09T00:05:06.340Z,27.01
2018-08-09T00:07:34.837Z,27.01
2018-08-09T00:10:03.436Z,26.99
2018-08-09T00:12:32.017Z,26.98
2018-08-09T00:15:00.543Z,26.98
2018-08-09T00:17:29.078Z,26.98
2018-08-09T00:19:57.580Z,26.99
2018-08-09T00:22:26.102Z,27.02
2018-08-09T00:24:54.632Z,27.02
2018-08-09T00:27:23.120Z,27.02
2018-08-09T00:29:51.630Z,27.03
2018-08-09T00:32:20.194Z,27.03
2018-08-09T00:34:48.918Z,27.02
2018-08-09T00:37:17.406Z,27.02
2018-08-09T00:39:45.861Z,27.02
2018-08-09T00:42:14.329Z,27.01
2018-08-09T00:44:42.851Z,27.01
2018-08-09T00:47:11.483Z,27.01
2018-08-09T00:49:39.994Z,27.01
2018-08-09T00:52:08.502Z,27.01
2018-08-09T00:54:37.012Z,27.01
2018-08-09T00:57:05.712Z,27.00
2018-08-09T00:59:34.580Z,27.00
2018-08-09T01:02:03.109Z,26.99
2018-08-09T01:04:31.613Z,26.99
2018-08-09T01:07:00.094Z,26.98
2018-08-09T01:09:28.611Z,26.97
2018-08-09T01:11:57.145Z,26.97
2018-08-09T01:14:26.258Z,26.96
2018-08-09T01:16:54.762Z,26.96
2018-08-09T01:19:23.262Z,26.97
2018-08-09T01:21:51.767Z,27.02
2018-08-09T01:24:20.286Z,27.04
2018-08-09T01:26:48.768Z,27.05
2018-08-09T01:29:17.289Z,27.04
2018-08-09T01:31:45.807Z,27.03
2018-08-09T01:34:14.463Z,27.01
2018-08-09T01:36:43.010Z,26.96
2018-08-09T01:39:13.022Z,26.95
2018-08-09T01:41:52.755Z,26.93
2018-08-09T01:44:21.249Z,26.93
2018-08-09T01:46:49.742Z,26.91
2018-08-09T01:49:18.385Z,26.91
2018-08-09T01:51:46.994Z,26.94
2018-08-09T01:54:15.550Z,26.94
2018-08-09T01:56:44.061Z,26.94
2018-08-09T01:59:12.569Z,26.95
2018-08-09T02:01:41.078Z,26.94
2018-08-09T02:04:09.586Z,26.94
2018-08-09T02:06:38.128Z,26.93
2018-08-09T02:09:09.659Z,26.92
2018-08-09T02:11:38.139Z,26.89
2018-08-09T02:14:06.916Z,26.88
2018-08-09T02:16:35.585Z,26.90
2018-08-09T02:19:04.074Z,26.89
2018-08-09T02:21:32.590Z,26.77
2018-08-09T02:24:01.092Z,26.90
2018-08-09T02:26:29.632Z,26.83
2018-08-09T02:28:58.129Z,26.80
2018-08-09T02:31:26.693Z,26.69
2018-08-09T02:33:55.222Z,26.83
2018-08-09T02:36:23.717Z,26.84
2018-08-09T02:38:52.192Z,26.81
2018-08-09T02:41:20.747Z,26.81
2018-08-09T02:43:49.257Z,26.80
2018-08-09T02:46:17.741Z,26.80
2018-08-09T02:48:46.242Z,26.79
2018-08-09T02:51:14.770Z,26.79
2018-08-09T02:53:43.335Z,26.80
2018-08-09T02:56:11.818Z,26.80
2018-08-09T02:58:40.313Z,26.80
2018-08-09T03:01:08.962Z,26.80
2018-08-09T03:03:37.492Z,26.79
2018-08-09T03:06:06.099Z,26.78
2018-08-09T03:08:34.584Z,26.72
2018-08-09T03:11:03.079Z,26.59
2018-08-09T03:13:31.571Z,26.37
2018-08-09T03:16:00.039Z,26.18
2018-08-09T03:18:28.510Z,25.97
2018-08-09T03:20:57.789Z,25.78
2018-08-09T03:23:26.263Z,25.60
2018-08-09T03:25:54.890Z,25.40
2018-08-09T03:28:23.378Z,25.24
2018-08-09T03:30:51.837Z,25.04
2018-08-09T03:33:20.356Z,25.04
2018-08-09T03:35:48.862Z,25.03
2018-08-09T03:38:17.390Z,24.98
2018-08-09T03:40:45.940Z,24.85
2018-08-09T03:43:14.462Z,24.80
2018-08-09T03:45:42.986Z,24.75
2018-08-09T03:48:11.485Z,24.77
2018-08-09T03:50:39.997Z,24.72
2018-08-09T03:53:08.502Z,24.71
2018-08-09T03:55:37.055Z,24.64
2018-08-09T03:58:05.616Z,24.61
2018-08-09T04:00:34.213Z,24.46
2018-08-09T04:03:02.698Z,24.48
2018-08-09T04:05:31.207Z,24.52
2018-08-09T04:07:59.699Z,24.59
2018-08-09T04:10:28.276Z,24.64
2018-08-09T04:12:56.803Z,24.68
2018-08-09T04:15:25.348Z,24.69
2018-08-09T04:17:53.921Z,24.75
2018-08-09T04:20:22.392Z,24.83
2018-08-09T04:22:50.920Z,24.91
2018-08-09T04:25:19.424Z,25.00
2018-08-09T04:27:48.038Z,25.09
2018-08-09T04:30:16.597Z,25.18
2018-08-09T04:32:45.115Z,25.28
2018-08-09T04:35:13.635Z,25.35
2018-08-09T04:37:42.163Z,25.43
2018-08-09T04:40:10.712Z,25.50
2018-08-09T04:42:39.206Z,25.56
2018-08-09T04:45:08.548Z,25.63
2018-08-09T04:47:37.039Z,25.68
2018-08-09T04:50:06.411Z,25.74
2018-08-09T04:52:34.911Z,25.78
2018-08-09T04:55:03.413Z,25.83
2018-08-09T04:57:31.941Z,25.89
2018-08-09T05:00:00.505Z,25.91
2018-08-09T05:02:29.246Z,25.98
2018-08-09T05:04:57.767Z,26.02
2018-08-09T05:07:26.271Z,26.05
2018-08-09T05:09:54.775Z,26.05
2018-08-09T05:12:23.263Z,26.10
2018-08-09T05:14:51.796Z,26.13
2018-08-09T05:17:20.309Z,26.16
2018-08-09T05:19:48.861Z,26.17
2018-08-09T05:22:21.533Z,26.19
2018-08-09T05:24:50.036Z,26.22
2018-08-09T05:27:18.565Z,26.20
2018-08-09T05:29:47.174Z,26.20
2018-08-09T05:32:15.661Z,26.22
2018-08-09T05:34:44.166Z,26.23
2018-08-09T05:37:12.654Z,26.24
2018-08-09T05:39:41.137Z,26.26
2018-08-09T05:42:09.667Z,26.27
2018-08-09T05:44:38.189Z,26.28
2018-08-09T05:47:06.686Z,26.29
2018-08-09T05:49:35.190Z,26.30
2018-08-09T05:52:03.713Z,26.32
2018-08-09T05:54:32.201Z,26.36
2018-08-09T05:57:00.783Z,26.31
2018-08-09T05:59:29.287Z,26.38
2018-08-09T06:01:57.843Z,26.38
2018-08-09T06:04:26.346Z,26.38
2018-08-09T06:06:54.882Z,26.39
2018-08-09T06:09:23.434Z,26.40
2018-08-09T06:11:51.947Z,26.40
2018-08-09T06:14:20.440Z,26.41
2018-08-09T06:16:48.990Z,26.41
2018-08-09T06:19:17.559Z,26.41
2018-08-09T06:21:46.131Z,26.42
2018-08-09T06:24:14.630Z,26.42
2018-08-09T06:26:43.218Z,26.43
2018-08-09T06:29:11.678Z,26.43
2018-08-09T06:31:40.178Z,26.45
2018-08-09T06:34:08.665Z,26.45
2018-08-09T06:36:37.211Z,26.45
2018-08-09T06:39:08.098Z,26.47
2018-08-09T06:41:37.016Z,26.47
2018-08-09T06:44:05.595Z,26.47
2018-08-09T06:46:34.098Z,26.47
2018-08-09T06:49:02.585Z,26.47
2018-08-09T06:51:31.091Z,26.48
2018-08-09T06:53:59.577Z,26.47
2018-08-09T06:56:28.085Z,26.47
2018-08-09T06:58:56.635Z,26.47
2018-08-09T07:01:25.163Z,26.48
2018-08-09T07:03:53.693Z,26.50
2018-08-09T07:06:22.294Z,26.49
2018-08-09T07:08:50.809Z,26.50
2018-08-09T07:11:19.303Z,26.52
2018-08-09T07:13:47.898Z,26.52
2018-08-09T07:16:16.418Z,26.53
2018-08-09T07:18:45.000Z,26.54
2018-08-09T07:21:13.490Z,26.53
2018-08-09T07:23:42.051Z,26.56
2018-08-09T07:26:10.562Z,26.56
2018-08-09T07:28:39.053Z,26.54
2018-08-09T07:31:07.563Z,26.56
2018-08-09T07:33:36.107Z,26.56
2018-08-09T07:36:04.636Z,26.57
2018-08-09T07:38:33.121Z,26.58
2018-08-09T07:41:01.638Z,26.57
2018-08-09T07:43:30.153Z,26.59
2018-08-09T07:45:58.652Z,26.58
2018-08-09T07:48:27.185Z,26.58
2018-08-09T07:50:55.670Z,26.59
2018-08-09T07:53:24.146Z,26.59
2018-08-09T07:55:52.663Z,26.60
2018-08-09T07:58:21.164Z,26.60
2018-08-09T08:00:49.699Z,26.61
2018-08-09T08:03:18.299Z,26.61
2018-08-09T08:05:46.884Z,26.61
2018-08-09T08:08:15.356Z,26.61
2018-08-09T08:10:43.938Z,26.62
2018-08-09T08:13:12.423Z,26.63
2018-08-09T08:15:40.964Z,26.63
2018-08-09T08:18:09.567Z,26.63
2018-08-09T08:20:38.111Z,26.63
2018-08-09T08:25:34.151Z,26.65
2018-08-09T08:28:03.116Z,26.66
2018-08-09T08:30:31.626Z,26.65
2018-08-09T08:33:00.149Z,26.66
2018-08-09T08:35:28.693Z,25.63
2018-08-09T08:37:57.175Z,26.64
2018-08-09T08:40:25.662Z,26.68
2018-08-09T08:42:54.163Z,26.68
2018-08-09T08:45:22.646Z,26.68
2018-08-09T08:47:51.122Z,26.70
2018-08-09T08:50:19.634Z,26.71
2018-08-09T08:52:48.174Z,26.71
2018-08-09T08:55:16.850Z,26.70
2018-08-09T08:57:45.409Z,26.72
2018-08-09T09:00:14.328Z,26.73
2018-08-09T09:02:42.887Z,26.73
2018-08-09T09:05:12.918Z,26.73
2018-08-09T09:07:41.470Z,26.74
2018-08-09T09:10:18.447Z,26.74
2018-08-09T09:12:47.146Z,26.73
2018-08-09T09:15:16.611Z,26.75
2018-08-09T09:17:45.606Z,26.74
2018-08-09T09:20:17.445Z,26.74
2018-08-09T09:22:46.596Z,26.75
2018-08-09T09:25:15.291Z,26.75
2018-08-09T09:27:43.965Z,26.76
2018-08-09T09:30:14.163Z,26.76
2018-08-09T09:32:42.706Z,26.78
2018-08-09T09:35:11.185Z,26.79
2018-08-09T09:37:40.436Z,26.80
2018-08-09T09:40:09.711Z,26.82
2018-08-09T09:42:39.095Z,26.72
2018-08-09T09:45:08.975Z,26.71
2018-08-09T09:47:37.839Z,26.70
2018-08-09T09:50:07.876Z,26.70
2018-08-09T09:52:36.427Z,26.72
2018-08-09T09:55:05.764Z,26.70
2018-08-09T09:57:34.318Z,26.70
2018-08-09T10:00:03.439Z,26.70
2018-08-09T10:02:32.488Z,26.69
2018-08-09T10:05:01.433Z,26.69
2018-08-09T10:07:30.227Z,26.69
2018-08-09T10:09:58.727Z,26.70
2018-08-09T10:12:27.490Z,26.68
2018-08-09T10:14:56.458Z,26.69
2018-08-09T10:17:25.385Z,26.68
2018-08-09T10:19:54.122Z,26.71
2018-08-09T10:22:22.919Z,26.72
2018-08-09T10:24:51.494Z,26.74
2018-08-09T10:27:20.127Z,26.74
2018-08-09T10:29:48.660Z,26.75
2018-08-09T10:32:17.195Z,26.75
2018-08-09T10:34:46.071Z,26.76
2018-08-09T10:37:14.862Z,26.54
2018-08-09T10:39:43.779Z,26.78
2018-08-09T10:42:12.454Z,26.78
2018-08-09T10:44:41.224Z,26.77
2018-08-09T10:47:09.894Z,26.78
2018-08-09T10:49:38.697Z,26.78
2018-08-09T10:52:07.345Z,26.79
2018-08-09T10:54:36.174Z,26.79
2018-08-09T10:57:05.067Z,26.80
2018-08-09T10:59:33.952Z,26.81
2018-08-09T11:02:02.663Z,26.80
2018-08-09T11:04:31.459Z,26.83
2018-08-09T11:07:00.174Z,26.83
2018-08-09T11:09:28.900Z,26.82
2018-08-09T11:11:57.578Z,26.83
2018-08-09T11:14:26.302Z,26.83
2018-08-09T11:16:55.349Z,26.83
2018-08-09T11:19:24.010Z,26.82
2018-08-09T11:21:52.842Z,26.83
2018-08-09T11:24:21.732Z,26.83
2018-08-09T11:26:50.899Z,26.83
2018-08-09T11:29:19.882Z,26.83
2018-08-09T11:31:48.748Z,26.83
2018-08-09T11:34:17.421Z,26.84
2018-08-09T11:36:46.246Z,26.85
2018-08-09T11:39:16.059Z,26.88
2018-08-09T11:41:44.787Z,26.88
2018-08-09T11:44:14.188Z,26.88
2018-08-09T11:46:43.459Z,26.88
2018-08-09T11:49:12.042Z,26.88
2018-08-09T11:51:40.535Z,26.88
2018-08-09T11:54:09.677Z,26.90
2018-08-09T11:56:38.360Z,26.89
2018-08-09T11:59:06.871Z,26.90
2018-08-09T12:01:35.529Z,26.91
2018-08-09T12:04:04.010Z,26.92
2018-08-09T12:06:32.574Z,26.92
2018-08-09T12:09:01.117Z,26.93
2018-08-09T12:11:29.781Z,26.92
2018-08-09T12:13:58.517Z,26.93
2018-08-09T12:16:27.203Z,26.96
2018-08-09T12:18:55.991Z,26.95
2018-08-09T12:21:24.511Z,26.97
2018-08-09T12:23:53.025Z,26.95
2018-08-09T12:26:21.514Z,26.96
2018-08-09T12:28:50.594Z,26.97
2018-08-09T12:31:19.062Z,26.97
2018-08-09T12:33:47.640Z,26.97
2018-08-09T12:36:16.754Z,26.97
2018-08-09T12:38:45.247Z,26.96
2018-08-09T12:41:13.715Z,26.94
2018-08-09T12:43:42.205Z,26.95
2018-08-09T12:46:10.727Z,26.95
2018-08-09T12:48:39.213Z,26.96
2018-08-09T12:51:07.950Z,26.96
2018-08-09T12:53:36.503Z,26.97
2018-08-09T12:56:05.051Z,26.97
2018-08-09T12:58:33.557Z,26.98
2018-08-09T13:01:02.048Z,26.98
2018-08-09T13:03:30.607Z,27.00
2018-08-09T13:05:59.091Z,27.01
2018-08-09T13:08:27.881Z,27.02
2018-08-09T13:10:56.444Z,27.02
2018-08-09T13:13:24.970Z,27.03
2018-08-09T13:15:53.442Z,27.03
2018-08-09T13:18:21.941Z,27.04
2018-08-09T13:20:50.787Z,27.04
2018-08-09T13:23:19.539Z,27.04
2018-08-09T13:25:48.329Z,27.05
2018-08-09T13:28:16.923Z,27.06
2018-08-09T13:30:45.729Z,27.07
2018-08-09T13:33:14.311Z,27.08
2018-08-09T13:35:43.144Z,27.09
2018-08-09T13:38:11.995Z,27.10
2018-08-09T13:40:40.847Z,27.10
2018-08-09T13:43:09.558Z,27.11
2018-08-09T13:45:38.239Z,27.12
2018-08-09T13:48:07.538Z,27.13
2018-08-09T13:50:36.150Z,27.11
2018-08-09T13:53:04.747Z,26.93
2018-08-09T13:55:33.248Z,27.12
2018-08-09T13:58:01.757Z,27.12
2018-08-09T14:00:30.235Z,27.12
2018-08-09T14:02:58.718Z,27.12
2018-08-09T14:05:27.347Z,27.12
2018-08-09T14:07:55.847Z,25.73
2018-08-09T14:10:24.350Z,27.10
2018-08-09T14:12:52.848Z,27.10
2018-08-09T14:15:21.330Z,27.10
2018-08-09T14:17:49.877Z,27.10
2018-08-09T14:20:18.899Z,27.11
2018-08-09T14:22:47.382Z,27.11
2018-08-09T14:25:15.885Z,27.13
2018-08-09T14:27:44.389Z,27.12
2018-08-09T14:30:15.015Z,27.12
2018-08-09T14:32:44.171Z,27.12
2018-08-09T14:35:15.142Z,27.11
2018-08-09T14:37:44.611Z,27.12
2018-08-09T14:40:14.158Z,27.11
2018-08-09T14:42:42.691Z,27.11
2018-08-09T14:45:13.608Z,27.12
2018-08-09T14:47:42.128Z,27.12
2018-08-09T14:50:10.610Z,27.12
2018-08-09T14:52:39.096Z,27.11
2018-08-09T14:55:09.458Z,27.11
2018-08-09T14:57:37.986Z,27.11
2018-08-09T15:00:12.637Z,27.11
2018-08-09T15:02:41.139Z,27.11
2018-08-09T15:05:09.638Z,27.10
2018-08-09T15:07:38.172Z,27.10
2018-08-09T15:10:06.836Z,27.10
2018-08-09T15:12:35.326Z,27.11
2018-08-09T15:15:04.143Z,27.10
2018-08-09T15:17:32.661Z,27.10
2018-08-09T15:20:01.180Z,27.10
2018-08-09T15:22:29.728Z,27.09
2018-08-09T15:24:58.181Z,27.10
2018-08-09T15:27:26.680Z,27.09
2018-08-09T15:29:55.189Z,27.09
2018-08-09T15:32:23.675Z,27.10
2018-08-09T15:34:52.167Z,27.10
2018-08-09T15:37:21.145Z,27.10
2018-08-09T15:39:49.618Z,27.09
2018-08-09T15:42:18.143Z,27.10
2018-08-09T15:44:46.698Z,27.09
2018-08-09T15:47:15.248Z,27.10
2018-08-09T15:49:43.711Z,27.09
2018-08-09T15:52:12.233Z,27.09
2018-08-09T15:54:40.731Z,27.09
2018-08-09T15:57:09.320Z,27.10
2018-08-09T15:59:37.808Z,27.10
2018-08-09T16:02:06.296Z,27.09
2018-08-09T16:04:34.790Z,27.09
2018-08-09T16:07:03.289Z,27.10
2018-08-09T16:09:31.778Z,27.10
2018-08-09T16:12:00.283Z,27.10
2018-08-09T16:14:28.787Z,27.09
2018-08-09T16:16:58.012Z,27.09
2018-08-09T16:19:26.801Z,27.10
2018-08-09T16:22:05.828Z,27.10
2018-08-09T16:24:34.655Z,27.09
2018-08-09T16:27:03.540Z,27.09
2018-08-09T16:29:32.744Z,27.09
2018-08-09T16:32:01.236Z,27.09
2018-08-09T16:34:30.328Z,27.08
2018-08-09T16:36:58.804Z,27.08
2018-08-09T16:39:27.304Z,27.11
2018-08-09T16:41:55.820Z,27.11
2018-08-09T16:44:24.351Z,27.12
2018-08-09T16:46:52.833Z,27.12
2018-08-09T16:49:21.371Z,27.14
2018-08-09T16:51:49.878Z,27.12
2018-08-09T16:55:42.725Z,27.14
2018-08-09T16:58:11.255Z,27.16
2018-08-09T17:00:39.742Z,27.18
2018-08-09T17:03:08.289Z,27.20
2018-08-09T17:05:36.782Z,27.19
2018-08-09T17:08:05.311Z,27.17
2018-08-09T17:10:33.822Z,27.21
2018-08-09T17:13:02.318Z,27.21
2018-08-09T17:15:30.818Z,27.22
2018-08-09T17:17:59.795Z,27.22
2018-08-09T17:20:31.492Z,27.24
2018-08-09T17:23:01.040Z,27.25
2018-08-09T17:25:29.604Z,27.04
2018-08-09T17:27:58.187Z,27.28
2018-08-09T17:30:27.798Z,27.29
2018-08-09T17:32:57.441Z,27.24
2018-08-09T17:35:25.922Z,27.32
2018-08-09T17:37:54.989Z,27.33
2018-08-09T17:40:25.920Z,27.37
2018-08-09T17:42:55.291Z,27.41
2018-08-09T17:45:27.506Z,27.46
2018-08-09T17:47:56.057Z,27.48
2018-08-09T17:50:24.582Z,27.52
2018-08-09T17:52:53.701Z,27.53
2018-08-09T17:55:22.665Z,27.57
2018-08-09T17:57:51.212Z,27.54
2018-08-09T18:00:23.406Z,27.55
2018-08-09T18:02:52.330Z,27.54
2018-08-09T18:05:20.840Z,27.48
2018-08-09T18:07:49.401Z,27.54
2018-08-09T18:10:21.337Z,27.52
2018-08-09T18:12:49.814Z,27.50
2018-08-09T18:15:19.030Z,27.48
2018-08-09T18:17:47.858Z,27.49
2018-08-09T18:20:17.980Z,27.46
2018-08-09T18:22:46.667Z,27.46
2018-08-09T18:25:15.929Z,27.47
2018-08-09T18:27:44.513Z,27.45
2018-08-09T18:30:16.259Z,27.46
2018-08-09T18:32:45.068Z,27.42
2018-08-09T18:35:16.801Z,27.35
2018-08-09T18:37:45.427Z,27.37
2018-08-09T18:40:19.485Z,27.36
2018-08-09T18:42:48.130Z,27.34
2018-08-09T18:45:16.953Z,27.30
2018-08-09T18:47:45.414Z,27.30
2018-08-09T18:50:17.278Z,27.29
2018-08-09T18:52:46.000Z,27.24
2018-08-09T18:55:15.577Z,27.22
2018-08-09T18:57:44.059Z,27.24
2018-08-09T19:00:15.042Z,27.24
2018-08-09T19:02:43.933Z,27.25
2018-08-09T19:05:12.452Z,27.22
2018-08-09T19:07:40.980Z,27.17
2018-08-09T19:10:11.677Z,27.16
2018-08-09T19:12:40.358Z,27.10
2018-08-09T19:15:10.446Z,27.12
2018-08-09T19:17:39.219Z,27.13
2018-08-09T19:20:17.746Z,27.10
2018-08-09T19:22:46.431Z,27.10
2018-08-09T19:25:15.368Z,27.10
2018-08-09T19:27:44.112Z,27.08
2018-08-09T19:30:13.797Z,27.10
2018-08-09T19:32:42.358Z,27.12
2018-08-09T19:35:13.805Z,27.11
2018-08-09T19:37:42.475Z,27.12
2018-08-09T19:40:13.083Z,27.08
2018-08-09T19:42:41.793Z,27.04
2018-08-09T19:45:13.330Z,27.03
2018-08-09T19:47:41.810Z,27.04
2018-08-09T19:50:12.625Z,27.03
2018-08-09T19:52:41.229Z,27.04
2018-08-09T19:55:11.580Z,27.06
2018-08-09T19:57:41.503Z,27.07
2018-08-09T20:00:13.064Z,27.08
2018-08-09T20:02:41.647Z,27.10
2018-08-09T20:05:10.982Z,27.11
2018-08-09T20:07:39.878Z,27.12
2018-08-09T20:10:09.691Z,27.15
2018-08-09T20:12:38.216Z,27.14
2018-08-09T20:15:11.669Z,27.15
2018-08-09T20:17:40.355Z,27.14
2018-08-09T20:20:09.858Z,27.12
2018-08-09T20:22:38.374Z,27.13
2018-08-09T20:25:08.271Z,27.13
2018-08-09T20:27:36.783Z,27.14
2018-08-09T20:30:08.070Z,27.12
2018-08-09T20:32:36.592Z,27.12
2018-08-09T20:35:07.897Z,27.11
2018-08-09T20:37:36.451Z,27.11
2018-08-09T20:40:06.751Z,27.11
2018-08-09T20:42:35.489Z,27.12
2018-08-09T20:45:04.946Z,27.11
2018-08-09T20:47:33.627Z,27.11
2018-08-09T20:50:02.292Z,27.11
2018-08-09T20:52:30.907Z,27.12
2018-08-09T20:54:59.424Z,27.12
2018-08-09T20:57:28.093Z,27.12
2018-08-09T20:59:56.590Z,27.06
2018-08-09T21:02:25.111Z,27.12
2018-08-09T21:04:53.656Z,27.07
2018-08-09T21:07:22.183Z,27.11
2018-08-09T21:09:50.729Z,27.11
2018-08-09T21:12:19.749Z,27.11
2018-08-09T21:14:48.368Z,27.12
2018-08-09T21:17:17.180Z,27.11
2018-08-09T21:19:45.776Z,27.12
2018-08-09T21:22:14.303Z,27.11
2018-08-09T21:24:42.877Z,27.11
2018-08-09T21:27:11.447Z,26.89
2018-08-09T21:29:40.007Z,27.14
2018-08-09T21:32:08.601Z,27.14
2018-08-09T21:34:37.114Z,27.14
2018-08-09T21:37:05.632Z,27.13
2018-08-09T21:39:34.102Z,27.13
2018-08-09T21:42:02.592Z,27.13
2018-08-09T21:44:31.071Z,27.12
2018-08-09T21:46:59.552Z,27.12
2018-08-09T21:49:28.060Z,27.11
2018-08-09T21:51:56.573Z,27.04
2018-08-09T21:54:25.058Z,27.12
2018-08-09T21:56:53.525Z,27.11
2018-08-09T21:59:22.091Z,27.11
2018-08-09T22:01:50.571Z,27.11
2018-08-09T22:04:20.293Z,27.11
2018-08-09T22:06:53.934Z,27.10
2018-08-09T22:09:27.491Z,27.10
2018-08-09T22:12:01.234Z,27.10
2018-08-09T22:14:35.033Z,27.11
2018-08-09T22:17:08.834Z,27.11
2018-08-09T22:19:42.718Z,27.10
2018-08-09T22:22:13.286Z,27.09
2018-08-09T22:24:41.847Z,27.09
2018-08-09T22:27:11.022Z,27.10
2018-08-09T22:29:39.504Z,27.11
2018-08-09T22:32:08.018Z,27.09
2018-08-09T22:34:36.525Z,27.09
2018-08-09T22:37:05.063Z,27.10
2018-08-09T22:39:33.549Z,27.09
2018-08-09T22:42:02.051Z,27.08
2018-08-09T22:44:30.555Z,27.11
2018-08-09T22:46:59.110Z,27.10
2018-08-09T22:49:27.639Z,27.11
2018-08-09T22:51:56.144Z,27.11
2018-08-09T22:54:24.973Z,27.10
2018-08-09T22:56:53.481Z,27.11
2018-08-09T22:59:21.964Z,27.11
2018-08-09T23:01:50.557Z,27.11
2018-08-09T23:04:19.098Z,27.11
2018-08-09T23:06:48.188Z,27.10
2018-08-09T23:09:16.701Z,27.10
2018-08-09T23:11:45.194Z,27.05
2018-08-09T23:14:13.705Z,27.10
2018-08-09T23:16:42.214Z,27.10
2018-08-09T23:19:10.698Z,27.09
2018-08-09T23:21:39.213Z,27.08
2018-08-09T23:24:07.705Z,27.03
2018-08-09T23:26:36.198Z,27.08
2018-08-09T23:29:04.723Z,27.10
2018-08-09T23:31:33.194Z,27.09
2018-08-09T23:34:01.782Z,27.09
2018-08-09T23:36:30.762Z,27.10
2018-08-09T23:38:59.244Z,27.10
2018-08-09T23:41:27.726Z,27.10
2018-08-09T23:43:56.227Z,27.09
2018-08-09T23:46:24.710Z,27.01
2018-08-09T23:48:53.254Z,27.10
2018-08-09T23:51:21.768Z,27.10
2018-08-09T23:53:50.222Z,27.09
2018-08-09T23:56:19.027Z,27.09
2018-08-09T23:58:47.535Z,27.09
